createdAt,value
2019-02-11T00:00:48.329Z,4.90
2019-02-11T00:03:15.666Z,4.90
2019-02-11T00:05:43.147Z,4.80
2019-02-11T00:08:10.493Z,4.70
2019-02-11T00:10:37.866Z,4.70
2019-02-11T00:13:10.378Z,4.70
2019-02-11T00:15:34.421Z,4.80
2019-02-11T00:18:01.855Z,4.80
2019-02-11T00:20:29.078Z,4.80
2019-02-11T00:22:56.470Z,4.60
2019-02-11T00:25:23.717Z,4.70
2019-02-11T00:27:51.141Z,4.60
2019-02-11T00:30:18.506Z,4.60
2019-02-11T00:32:45.982Z,4.60
2019-02-11T00:35:13.342Z,4.60
2019-02-11T00:37:40.581Z,4.60
2019-02-11T00:40:07.934Z,4.80
2019-02-11T00:42:35.310Z,4.80
2019-02-11T00:45:02.710Z,4.80
2019-02-11T00:47:30.102Z,4.90
2019-02-11T00:49:57.458Z,5.10
2019-02-11T00:52:24.710Z,5.10
2019-02-11T00:54:52.094Z,5.00
2019-02-11T00:57:19.350Z,5.10
2019-02-11T00:59:46.670Z,5.20
2019-02-11T01:02:14.055Z,5.20
2019-02-11T01:04:41.283Z,5.20
2019-02-11T01:07:08.765Z,5.30
2019-02-11T01:09:36.121Z,5.30
2019-02-11T01:12:03.386Z,5.40
2019-02-11T01:14:30.671Z,5.40
2019-02-11T01:16:58.086Z,5.30
2019-02-11T01:19:25.469Z,5.20
2019-02-11T01:21:52.747Z,5.10
2019-02-11T01:24:20.137Z,4.90
2019-02-11T01:26:47.481Z,4.90
2019-02-11T01:29:14.865Z,4.90
2019-02-11T01:31:42.341Z,5.00
2019-02-11T01:34:09.689Z,5.10
2019-02-11T01:36:37.062Z,5.10
2019-02-11T01:39:05.315Z,5.20
2019-02-11T01:41:32.641Z,5.20
2019-02-11T01:44:00.034Z,5.20
2019-02-11T01:46:27.449Z,5.30
2019-02-11T01:48:54.734Z,5.20
2019-02-11T01:51:22.077Z,5.00
2019-02-11T01:53:49.591Z,4.90
2019-02-11T01:56:16.957Z,4.90
2019-02-11T01:58:44.298Z,4.90
2019-02-11T02:01:11.722Z,4.80
2019-02-11T02:03:39.081Z,4.70
2019-02-11T02:06:06.430Z,4.60
2019-02-11T02:08:33.859Z,4.60
2019-02-11T02:11:01.243Z,4.60
2019-02-11T02:13:29.098Z,4.60
2019-02-11T02:15:56.462Z,4.60
2019-02-11T02:18:23.841Z,4.60
2019-02-11T02:20:51.111Z,4.60
2019-02-11T02:23:18.424Z,4.60
2019-02-11T02:25:45.657Z,4.60
2019-02-11T02:28:12.886Z,4.40
2019-02-11T02:30:40.204Z,4.50
2019-02-11T02:33:07.483Z,4.40
2019-02-11T02:35:35.297Z,4.50
2019-02-11T02:38:02.669Z,4.40
2019-02-11T02:40:29.912Z,4.40
2019-02-11T02:42:57.402Z,4.40
2019-02-11T02:45:24.819Z,4.60
2019-02-11T02:47:52.190Z,4.70
2019-02-11T02:50:19.481Z,4.60
2019-02-11T02:52:46.947Z,4.50
2019-02-11T02:55:14.396Z,4.40
2019-02-11T02:57:41.799Z,4.40
2019-02-11T03:00:09.568Z,4.40
2019-02-11T03:02:36.834Z,4.40
2019-02-11T03:05:05.026Z,4.40
2019-02-11T03:07:32.409Z,4.40
2019-02-11T03:09:59.833Z,4.40
2019-02-11T03:12:27.318Z,4.50
2019-02-11T03:14:54.854Z,4.70
2019-02-11T03:17:22.330Z,4.70
2019-02-11T03:19:49.768Z,4.70
2019-02-11T03:22:17.346Z,4.90
2019-02-11T03:24:44.782Z,4.90
2019-02-11T03:27:12.126Z,4.70
2019-02-11T03:29:39.395Z,4.70
2019-02-11T03:32:06.719Z,4.80
2019-02-11T03:34:34.938Z,4.70
2019-02-11T03:37:02.194Z,4.70
2019-02-11T03:39:29.747Z,4.60
2019-02-11T03:41:57.254Z,4.50
2019-02-11T03:44:24.628Z,4.40
2019-02-11T03:46:52.052Z,4.40
2019-02-11T03:49:19.634Z,4.50
2019-02-11T03:51:47.150Z,4.70
2019-02-11T03:54:14.557Z,4.80
2019-02-11T03:56:42.062Z,4.70
2019-02-11T03:59:09.453Z,4.70
2019-02-11T04:01:36.822Z,4.70
2019-02-11T04:04:04.294Z,4.70
2019-02-11T04:06:31.717Z,4.50
2019-02-11T04:08:59.097Z,4.80
2019-02-11T04:11:26.785Z,4.90
2019-02-11T04:13:54.044Z,5.00
2019-02-11T04:16:21.379Z,5.00
2019-02-11T04:18:48.767Z,4.90
2019-02-11T04:21:16.215Z,4.90
2019-02-11T04:23:43.738Z,4.90
2019-02-11T04:26:11.032Z,4.90
2019-02-11T04:28:38.543Z,4.60
2019-02-11T04:31:06.011Z,4.70
2019-02-11T04:33:33.492Z,4.70
2019-02-11T04:36:01.038Z,4.70
2019-02-11T04:38:28.527Z,4.70
2019-02-11T04:40:55.933Z,4.80
2019-02-11T04:43:23.383Z,4.80
2019-02-11T04:45:50.747Z,4.70
2019-02-11T04:48:18.131Z,4.70
2019-02-11T04:50:45.606Z,4.70
2019-02-11T04:53:12.943Z,4.80
2019-02-11T04:55:40.390Z,4.70
2019-02-11T04:58:07.650Z,4.60
2019-02-11T05:00:35.063Z,4.60
2019-02-11T05:03:02.479Z,4.50
2019-02-11T05:05:30.015Z,4.70
2019-02-11T05:07:57.411Z,4.60
2019-02-11T05:10:24.903Z,4.60
2019-02-11T05:12:52.420Z,4.60
2019-02-11T05:15:19.820Z,4.50
2019-02-11T05:17:47.361Z,4.50
2019-02-11T05:20:14.757Z,4.60
2019-02-11T05:22:42.169Z,4.60
2019-02-11T05:25:09.746Z,4.70
2019-02-11T05:27:37.114Z,4.70
2019-02-11T05:30:05.097Z,4.60
2019-02-11T05:32:32.486Z,4.70
2019-02-11T05:34:59.835Z,4.70
2019-02-11T05:37:27.970Z,4.80
2019-02-11T05:39:55.358Z,4.70
2019-02-11T05:42:22.781Z,4.80
2019-02-11T05:44:54.017Z,4.90
2019-02-11T05:47:19.585Z,4.90
2019-02-11T05:49:47.014Z,5.00
2019-02-11T05:52:14.534Z,5.10
2019-02-11T05:54:41.801Z,5.00
2019-02-11T05:57:09.254Z,5.10
2019-02-11T05:59:36.702Z,5.00
2019-02-11T06:02:03.947Z,5.20
2019-02-11T06:04:31.355Z,5.30
2019-02-11T06:06:58.630Z,5.10
2019-02-11T06:09:25.941Z,5.20
2019-02-11T06:11:53.366Z,5.00
2019-02-11T06:14:20.619Z,5.00
2019-02-11T06:16:47.982Z,5.10
2019-02-11T06:19:15.380Z,5.20
2019-02-11T06:21:42.832Z,5.30
2019-02-11T06:24:10.267Z,5.20
2019-02-11T06:26:37.503Z,5.30
2019-02-11T06:29:05.254Z,5.10
2019-02-11T06:31:32.879Z,4.90
2019-02-11T06:34:00.367Z,4.90
2019-02-11T06:36:27.974Z,5.00
2019-02-11T06:38:55.576Z,4.80
2019-02-11T06:41:23.080Z,4.80
2019-02-11T06:43:50.590Z,4.80
2019-02-11T06:46:18.029Z,4.80
2019-02-11T06:48:45.726Z,4.80
2019-02-11T06:51:13.239Z,4.90
2019-02-11T06:53:40.718Z,5.00
2019-02-11T06:56:08.142Z,4.90
2019-02-11T06:58:35.487Z,5.10
2019-02-11T07:01:03.142Z,5.10
2019-02-11T07:03:30.607Z,5.10
2019-02-11T07:05:58.033Z,5.10
2019-02-11T07:08:25.402Z,5.10
2019-02-11T07:10:55.789Z,5.00
2019-02-11T07:13:22.122Z,4.70
2019-02-11T07:15:49.581Z,4.70
2019-02-11T07:18:17.042Z,4.70
2019-02-11T07:20:44.485Z,4.70
2019-02-11T07:23:11.918Z,4.70
2019-02-11T07:25:39.375Z,4.80
2019-02-11T07:28:07.100Z,4.90
2019-02-11T07:30:34.460Z,4.70
2019-02-11T07:33:01.913Z,4.70
2019-02-11T07:35:29.301Z,4.70
2019-02-11T07:37:56.627Z,4.80
2019-02-11T07:40:26.825Z,4.60
2019-02-11T07:43:02.022Z,4.60
2019-02-11T07:45:43.656Z,4.50
2019-02-11T07:48:11.162Z,4.60
2019-02-11T07:50:38.584Z,4.50
2019-02-11T07:53:05.850Z,4.60
2019-02-11T07:55:33.259Z,4.40
2019-02-11T07:58:00.666Z,4.50
2019-02-11T08:00:28.104Z,4.40
2019-02-11T08:02:55.417Z,4.40
2019-02-11T08:05:22.918Z,4.40
2019-02-11T08:07:50.326Z,4.50
2019-02-11T08:10:17.730Z,4.60
2019-02-11T08:12:45.154Z,4.70
2019-02-11T08:15:12.398Z,4.60
2019-02-11T08:17:39.853Z,4.60
2019-02-11T08:20:07.973Z,4.40
2019-02-11T08:22:35.418Z,4.50
2019-02-11T08:25:02.962Z,4.60
2019-02-11T08:27:30.240Z,4.50
2019-02-11T08:29:58.308Z,4.30
2019-02-11T08:32:25.684Z,4.30
2019-02-11T08:34:53.090Z,4.10
2019-02-11T08:37:20.501Z,4.10
2019-02-11T08:39:47.804Z,4.10
2019-02-11T08:42:16.010Z,4.10
2019-02-11T08:44:43.458Z,4.00
2019-02-11T08:47:10.874Z,4.10
2019-02-11T08:49:38.382Z,4.00
2019-02-11T08:52:05.846Z,4.10
2019-02-11T08:54:33.271Z,4.10
2019-02-11T08:57:00.525Z,4.10
2019-02-11T08:59:27.790Z,4.10
2019-02-11T09:01:55.048Z,4.30
2019-02-11T09:04:22.538Z,4.20
2019-02-11T09:06:49.985Z,4.40
2019-02-11T09:09:17.561Z,4.40
2019-02-11T09:11:44.956Z,4.40
2019-02-11T09:14:12.243Z,4.50
2019-02-11T09:16:39.649Z,4.70
2019-02-11T09:19:07.113Z,4.80
2019-02-11T09:21:34.440Z,5.10
2019-02-11T09:24:01.932Z,5.20
2019-02-11T09:26:29.424Z,5.10
2019-02-11T09:28:56.835Z,5.20
2019-02-11T09:31:24.266Z,5.20
2019-02-11T09:33:51.556Z,5.20
2019-02-11T09:36:18.922Z,5.20
2019-02-11T09:38:46.270Z,5.30
2019-02-11T09:41:13.575Z,5.20
2019-02-11T09:43:41.789Z,5.30
2019-02-11T09:46:09.182Z,5.10
2019-02-11T09:48:36.541Z,5.20
2019-02-11T09:51:04.729Z,5.20
2019-02-11T09:53:32.550Z,5.30
2019-02-11T09:55:59.911Z,5.30
2019-02-11T09:58:27.390Z,5.30
2019-02-11T10:00:54.742Z,5.10
2019-02-11T10:03:22.117Z,5.10
2019-02-11T10:05:49.458Z,5.10
2019-02-11T10:08:16.860Z,5.20
2019-02-11T10:10:44.281Z,5.20
2019-02-11T10:13:11.509Z,5.40
2019-02-11T10:15:38.785Z,5.60
2019-02-11T10:18:06.242Z,5.70
2019-02-11T10:20:33.802Z,5.90
2019-02-11T10:23:01.915Z,5.90
2019-02-11T10:25:29.850Z,5.70
2019-02-11T10:28:00.081Z,5.70
2019-02-11T10:30:27.357Z,5.80
2019-02-11T10:32:54.793Z,5.90
2019-02-11T10:35:22.186Z,5.80
2019-02-11T10:37:49.450Z,5.60
2019-02-11T10:40:16.701Z,5.50
2019-02-11T10:42:45.154Z,5.30
2019-02-11T10:45:13.542Z,5.10
2019-02-11T10:47:45.335Z,5.10
2019-02-11T10:50:15.804Z,5.20
2019-02-11T10:52:43.070Z,5.10
2019-02-11T10:55:11.982Z,5.30
2019-02-11T10:57:39.390Z,5.40
2019-02-11T11:00:09.429Z,5.60
2019-02-11T11:02:36.901Z,5.80
2019-02-11T11:05:05.542Z,5.60
2019-02-11T11:07:33.038Z,5.70
2019-02-11T11:10:00.506Z,5.70
2019-02-11T11:12:27.873Z,5.80
2019-02-11T11:14:55.357Z,5.80
2019-02-11T11:17:22.689Z,5.60
2019-02-11T11:19:50.153Z,5.40
2019-02-11T11:22:17.491Z,5.40
2019-02-11T11:24:44.967Z,5.40
2019-02-11T11:27:12.414Z,5.40
2019-02-11T11:29:40.014Z,5.40
2019-02-11T11:32:07.289Z,5.40
2019-02-11T11:34:34.719Z,5.40
2019-02-11T11:37:02.233Z,5.50
2019-02-11T11:39:29.598Z,5.50
2019-02-11T11:41:57.063Z,5.60
2019-02-11T11:44:24.618Z,5.70
2019-02-11T11:46:52.905Z,5.70
2019-02-11T11:49:20.351Z,5.80
2019-02-11T11:51:47.719Z,5.60
2019-02-11T11:54:15.284Z,5.60
2019-02-11T11:56:42.786Z,5.50
2019-02-11T11:59:10.078Z,5.50
2019-02-11T12:01:37.505Z,5.60
2019-02-11T12:04:06.687Z,5.70
2019-02-11T12:06:34.033Z,5.70
2019-02-11T12:09:01.431Z,5.50
2019-02-11T12:11:28.991Z,5.50
2019-02-11T12:13:56.513Z,5.50
2019-02-11T12:16:24.036Z,5.50
2019-02-11T12:18:51.419Z,5.70
2019-02-11T12:21:18.806Z,5.70
2019-02-11T12:23:46.246Z,5.90
2019-02-11T12:26:13.791Z,5.70
2019-02-11T12:28:41.375Z,5.70
2019-02-11T12:31:08.765Z,5.60
2019-02-11T12:33:38.028Z,5.70
2019-02-11T12:36:05.564Z,5.80
2019-02-11T12:38:33.129Z,5.80
2019-02-11T12:41:00.537Z,5.90
2019-02-11T12:43:27.988Z,5.90
2019-02-11T12:45:55.492Z,5.60
2019-02-11T12:48:24.169Z,5.60
2019-02-11T12:50:51.659Z,5.60
2019-02-11T12:53:19.007Z,5.90
2019-02-11T12:55:46.359Z,6.00
2019-02-11T12:58:13.890Z,5.90
2019-02-11T13:00:41.258Z,6.00
2019-02-11T13:03:08.630Z,5.90
2019-02-11T13:05:44.803Z,5.90
2019-02-11T13:08:05.447Z,5.80
2019-02-11T13:10:33.060Z,5.60
2019-02-11T13:13:00.571Z,5.60
2019-02-11T13:15:56.836Z,5.60
2019-02-11T13:17:57.510Z,5.80
2019-02-11T13:20:24.911Z,5.70
2019-02-11T13:22:52.261Z,5.70
2019-02-11T13:25:19.896Z,5.60
2019-02-11T13:27:47.258Z,5.80
2019-02-11T13:30:16.275Z,5.90
2019-02-11T13:32:43.757Z,5.90
2019-02-11T13:35:11.187Z,6.00
2019-02-11T13:37:38.767Z,6.20
2019-02-11T13:40:06.973Z,6.10
2019-02-11T13:42:34.373Z,6.10
2019-02-11T13:45:02.071Z,6.10
2019-02-11T13:47:29.870Z,5.90
2019-02-11T13:49:58.342Z,5.70
2019-02-11T13:52:25.912Z,5.60
2019-02-11T13:54:53.419Z,5.50
2019-02-11T13:57:20.767Z,5.30
2019-02-11T13:59:48.407Z,5.20
2019-02-11T14:02:15.906Z,5.10
2019-02-11T14:04:43.582Z,5.20
2019-02-11T14:07:11.107Z,5.20
2019-02-11T14:09:38.627Z,5.30
2019-02-11T14:12:06.245Z,5.40
2019-02-11T14:14:33.995Z,5.40
2019-02-11T14:17:01.520Z,5.40
2019-02-11T14:19:28.899Z,5.10
2019-02-11T14:21:56.264Z,4.90
2019-02-11T14:24:23.776Z,4.70
2019-02-11T14:26:51.133Z,4.60
2019-02-11T14:29:18.534Z,4.60
2019-02-11T14:31:45.996Z,4.60
2019-02-11T14:34:13.407Z,4.80
2019-02-11T14:36:43.452Z,4.90
2019-02-11T14:39:11.054Z,4.90
2019-02-11T14:41:38.755Z,5.00
2019-02-11T14:44:06.173Z,5.10
2019-02-11T14:46:33.678Z,5.00
2019-02-11T14:49:01.108Z,4.90
2019-02-11T14:51:28.560Z,4.90
2019-02-11T14:53:56.015Z,4.70
2019-02-11T14:56:23.250Z,4.70
2019-02-11T14:58:50.662Z,4.80
2019-02-11T15:01:17.958Z,4.90
2019-02-11T15:03:45.589Z,5.00
2019-02-11T15:06:12.951Z,5.00
2019-02-11T15:08:40.297Z,5.20
2019-02-11T15:11:07.520Z,5.20
2019-02-11T15:13:34.863Z,5.20
2019-02-11T15:16:02.570Z,5.10
2019-02-11T15:18:34.397Z,5.10
2019-02-11T15:20:59.232Z,5.00
2019-02-11T15:23:26.478Z,4.90
2019-02-11T15:25:53.791Z,5.00
2019-02-11T15:28:21.306Z,4.90
2019-02-11T15:30:48.612Z,4.90
2019-02-11T15:33:16.192Z,4.80
2019-02-11T15:35:43.696Z,4.70
2019-02-11T15:38:10.985Z,4.50
2019-02-11T15:40:38.366Z,4.50
2019-02-11T15:43:05.769Z,4.40
2019-02-11T15:45:33.253Z,4.40
2019-02-11T15:48:00.497Z,4.30
2019-02-11T15:50:27.870Z,4.50
2019-02-11T15:52:55.290Z,4.40
2019-02-11T15:55:22.886Z,4.30
2019-02-11T15:57:50.507Z,4.30
2019-02-11T16:00:19.393Z,4.30
2019-02-11T16:02:46.757Z,4.30
2019-02-11T16:05:16.569Z,4.40
2019-02-11T16:07:43.305Z,4.40
2019-02-11T16:10:12.742Z,4.50
2019-02-11T16:12:40.151Z,4.50
2019-02-11T16:15:07.466Z,4.40
2019-02-11T16:17:34.759Z,4.40
2019-02-11T16:20:02.254Z,4.40
2019-02-11T16:22:29.526Z,4.40
2019-02-11T16:24:56.910Z,4.30
2019-02-11T16:27:24.374Z,4.20
2019-02-11T16:29:51.631Z,4.30
2019-02-11T16:32:19.094Z,4.40
2019-02-11T16:34:46.487Z,4.40
2019-02-11T16:37:13.987Z,4.40
2019-02-11T16:39:41.618Z,4.40
2019-02-11T16:42:09.107Z,4.40
2019-02-11T16:44:36.622Z,4.40
2019-02-11T16:47:04.135Z,4.50
2019-02-11T16:49:31.815Z,4.60
2019-02-11T16:51:59.286Z,4.40
2019-02-11T16:54:27.749Z,4.30
2019-02-11T16:56:55.030Z,4.50
2019-02-11T16:59:22.394Z,4.50
2019-02-11T17:01:49.622Z,4.50
2019-02-11T17:04:16.874Z,4.40
2019-02-11T17:06:44.259Z,4.50
2019-02-11T17:09:11.554Z,4.60
2019-02-11T17:11:39.062Z,4.70
2019-02-11T17:14:06.404Z,4.80
2019-02-11T17:16:33.907Z,4.80
2019-02-11T17:19:08.890Z,4.70
2019-02-11T17:21:30.475Z,4.70
2019-02-11T17:23:57.968Z,4.70
2019-02-11T17:26:25.453Z,4.80
2019-02-11T17:28:52.802Z,4.70
2019-02-11T17:31:20.158Z,4.90
2019-02-11T17:33:47.417Z,5.10
2019-02-11T17:36:14.970Z,4.80
2019-02-11T17:38:42.362Z,4.90
2019-02-11T17:41:09.675Z,5.00
2019-02-11T17:43:37.113Z,4.90
2019-02-11T17:46:04.646Z,4.80
2019-02-11T17:48:34.207Z,4.70
2019-02-11T17:51:01.613Z,4.70
2019-02-11T17:53:29.042Z,4.60
2019-02-11T17:55:57.442Z,4.60
2019-02-11T17:58:24.914Z,4.70
2019-02-11T18:00:56.857Z,4.70
2019-02-11T18:03:24.182Z,4.70
2019-02-11T18:05:51.538Z,4.70
2019-02-11T18:08:19.130Z,4.70
2019-02-11T18:10:46.510Z,4.70
2019-02-11T18:13:13.901Z,4.80
2019-02-11T18:15:41.130Z,4.80
2019-02-11T18:18:08.495Z,4.80
2019-02-11T18:20:35.770Z,4.90
2019-02-11T18:23:03.156Z,4.70
2019-02-11T18:25:30.615Z,4.80
2019-02-11T18:27:58.038Z,4.70
2019-02-11T18:30:25.619Z,4.70
2019-02-11T18:32:52.985Z,4.80
2019-02-11T18:35:20.272Z,4.90
2019-02-11T18:37:47.728Z,4.70
2019-02-11T18:40:15.111Z,4.70
2019-02-11T18:43:03.790Z,4.70
2019-02-11T18:45:31.274Z,4.60
2019-02-11T18:47:58.574Z,4.70
2019-02-11T18:50:25.875Z,4.80
2019-02-11T18:52:53.442Z,4.90
2019-02-11T18:55:20.911Z,4.90
2019-02-11T18:57:49.172Z,4.90
2019-02-11T19:00:17.932Z,4.80
2019-02-11T19:02:45.276Z,4.80
2019-02-11T19:05:13.727Z,4.80
2019-02-11T19:07:41.043Z,4.80
2019-02-11T19:10:09.394Z,4.70
2019-02-11T19:12:36.735Z,4.70
2019-02-11T19:15:05.274Z,4.70
2019-02-11T19:17:32.686Z,4.70
2019-02-11T19:20:00.124Z,4.70
2019-02-11T19:22:27.514Z,4.40
2019-02-11T19:24:54.870Z,4.30
2019-02-11T19:27:22.253Z,4.30
2019-02-11T19:29:49.533Z,4.20
2019-02-11T19:32:16.901Z,4.20
2019-02-11T19:34:44.142Z,4.30
2019-02-11T19:37:11.654Z,4.20
2019-02-11T19:39:39.336Z,4.20
2019-02-11T19:42:06.886Z,4.20
2019-02-11T19:44:34.235Z,4.10
2019-02-11T19:47:01.739Z,4.10
2019-02-11T19:49:29.121Z,4.00
2019-02-11T19:51:56.569Z,4.10
2019-02-11T19:54:24.091Z,4.20
2019-02-11T19:56:51.518Z,4.20
2019-02-11T19:59:18.826Z,4.20
2019-02-11T20:01:46.250Z,3.90
2019-02-11T20:04:13.631Z,3.60
2019-02-11T20:06:40.941Z,3.40
2019-02-11T20:09:08.437Z,3.30
2019-02-11T20:11:35.701Z,3.30
2019-02-11T20:14:03.165Z,3.20
2019-02-11T20:16:30.627Z,3.20
2019-02-11T20:18:58.098Z,3.20
2019-02-11T20:21:25.470Z,3.20
2019-02-11T20:23:52.742Z,3.30
2019-02-11T20:26:20.225Z,3.30
2019-02-11T20:28:47.502Z,3.30
2019-02-11T20:31:14.890Z,3.30
2019-02-11T20:33:42.290Z,3.20
2019-02-11T20:36:09.682Z,3.50
2019-02-11T20:38:37.123Z,3.40
2019-02-11T20:41:04.498Z,3.50
2019-02-11T20:43:31.898Z,3.60
2019-02-11T20:45:59.303Z,3.50
2019-02-11T20:48:26.679Z,3.40
2019-02-11T20:50:54.111Z,3.50
2019-02-11T20:53:21.526Z,3.50
2019-02-11T20:55:48.838Z,3.40
2019-02-11T20:58:16.326Z,3.50
2019-02-11T21:00:44.022Z,3.40
2019-02-11T21:03:11.294Z,3.50
2019-02-11T21:05:38.566Z,3.40
2019-02-11T21:08:05.957Z,3.40
2019-02-11T21:10:33.270Z,3.40
2019-02-11T21:13:00.729Z,3.40
2019-02-11T21:15:28.251Z,3.50
2019-02-11T21:17:55.621Z,3.50
2019-02-11T21:20:29.053Z,3.40
2019-02-11T21:22:56.417Z,3.40
2019-02-11T21:25:23.784Z,3.20
2019-02-11T21:27:51.171Z,3.20
2019-02-11T21:30:20.792Z,3.20
2019-02-11T21:32:48.283Z,3.30
2019-02-11T21:35:15.667Z,3.30
2019-02-11T21:37:42.927Z,3.40
2019-02-11T21:40:10.400Z,3.40
2019-02-11T21:42:37.866Z,3.20
2019-02-11T21:45:06.159Z,3.20
2019-02-11T21:47:33.654Z,3.10
2019-02-11T21:50:00.898Z,3.20
2019-02-11T21:52:28.173Z,3.30
2019-02-11T21:54:55.455Z,3.40
2019-02-11T21:57:22.867Z,3.50
2019-02-11T21:59:50.297Z,3.60
2019-02-11T22:02:18.581Z,3.50
2019-02-11T22:04:45.928Z,3.50
2019-02-11T22:07:13.203Z,3.40
2019-02-11T22:09:40.771Z,3.20
2019-02-11T22:12:08.129Z,3.00
2019-02-11T22:14:35.398Z,3.00
2019-02-11T22:17:02.695Z,2.90
2019-02-11T22:19:29.979Z,3.00
2019-02-11T22:21:57.360Z,3.20
2019-02-11T22:24:24.781Z,3.30
2019-02-11T22:26:52.149Z,3.30
2019-02-11T22:29:19.544Z,3.20
2019-02-11T22:31:46.851Z,3.30
2019-02-11T22:34:14.215Z,3.40
2019-02-11T22:36:41.526Z,3.30
2019-02-11T22:39:08.921Z,3.30
2019-02-11T22:41:36.584Z,3.30
2019-02-11T22:44:04.066Z,3.30
2019-02-11T22:46:31.306Z,3.30
2019-02-11T22:48:58.545Z,3.30
2019-02-11T22:51:25.886Z,3.30
2019-02-11T22:53:53.326Z,3.40
2019-02-11T22:56:20.605Z,3.30
2019-02-11T22:58:47.858Z,3.30
2019-02-11T23:01:15.574Z,3.30
2019-02-11T23:03:43.182Z,3.30
2019-02-11T23:06:10.674Z,3.30
2019-02-11T23:08:37.918Z,3.30
2019-02-11T23:11:05.261Z,3.30
2019-02-11T23:13:32.670Z,3.20
2019-02-11T23:16:00.297Z,3.30
2019-02-11T23:18:27.567Z,3.30
2019-02-11T23:20:55.021Z,3.20
2019-02-11T23:23:22.478Z,3.20
2019-02-11T23:25:49.875Z,3.10
2019-02-11T23:28:17.159Z,3.00
2019-02-11T23:30:44.469Z,3.00
2019-02-11T23:33:11.728Z,2.80
2019-02-11T23:35:39.017Z,2.80
2019-02-11T23:38:06.482Z,2.90
2019-02-11T23:40:33.814Z,2.80
2019-02-11T23:43:01.086Z,2.90
2019-02-11T23:45:28.457Z,2.90
2019-02-11T23:47:55.882Z,2.90
2019-02-11T23:50:23.274Z,3.00
2019-02-11T23:52:50.811Z,2.90
2019-02-11T23:55:18.075Z,2.90
2019-02-11T23:57:45.504Z,3.10
